No particular awareness of the weather is required.    There are no Weather-warnings


Meteo18 Weather Cam more information Meteo18 Weather Cam


Thunder radar more information blitzortung!


Rain radar more information rain snow radar


Visit our other weather sites:

Template documentation
and downloads

And another site



Weather Underground History page Text

Daily Summary for October 9, 2017 Units:  Both    English   Metric
« Previous Day
Next Day »
Daily Weekly Monthly Yearly Custom
  High: Low: Average:
Temperature: 61.7 °F /  16.5 °C 49.8 °F /  9.9 °C 55.4 °F /  13 °C
Dew Point: 55.6 °F /  13.1 °C 48.9 °F /  9.4 °C 52.2 °F /  11.2 °C
Humidity: 98 % 72 % 89 %
Wind Speed: 9 mph /  14.5 km/h - 1.1 mph /  1.7 km/h
Wind Gust: 11 mph /  17.7 km/h - -
Wind:- - SW
Pressure: 30.2 in /  1023.2 hPa 30.2 in /  1021.9 hPa -
Precipitation: 0 in /  0.0 mm    
Historical Graphs
 
 
Tabular Data for October 9, 2017
Time Temperature Dew Point Pressure Wind Wind Speed Wind Gust Humidity Rainfall Rate (Hourly)
00:02 52.5 °F /  11.4 °C 51.1 °F /  10.6 °C 30.2 in /  1022.9 hPa Calm     95 % 0 in /  0.0 mm
00:07 52.3 °F /  11.3 °C 50.9 °F /  10.5 °C 30.2 in /  1022.9 hPa Calm     95 % 0 in /  0.0 mm
00:12 52.2 °F /  11.2 °C 50.7 °F /  10.4 °C 30.2 in /  1022.9 hPa Calm     95 % 0 in /  0.0 mm
00:17 52.2 °F /  11.2 °C 50.7 °F /  10.4 °C 30.2 in /  1022.9 hPa Calm     95 % 0 in /  0.0 mm
00:22 52 °F /  11.1 °C 50.5 °F /  10.3 °C 30.2 in /  1022.9 hPa Calm     95 % 0 in /  0.0 mm
00:32 51.8 °F /  11.0 °C 50.4 °F /  10.2 °C 30.2 in /  1022.9 hPa Calm     95 % 0 in /  0.0 mm
00:37 52 °F /  11.1 °C 50.9 °F /  10.5 °C 30.2 in /  1022.9 hPa Calm     96 % 0 in /  0.0 mm
00:42 51.8 °F /  11.0 °C 50.4 °F /  10.2 °C 30.2 in /  1022.9 hPa Calm     95 % 0 in /  0.0 mm
00:47 52 °F /  11.1 °C 50.9 °F /  10.5 °C 30.2 in /  1022.9 hPa Calm     96 % 0 in /  0.0 mm
00:52 52 °F /  11.1 °C 50.9 °F /  10.5 °C 30.2 in /  1022.9 hPa Calm     96 % 0 in /  0.0 mm
00:57 52 °F /  11.1 °C 50.9 °F /  10.5 °C 30.2 in /  1022.9 hPa Calm     96 % 0 in /  0.0 mm
01:02 52 °F /  11.1 °C 50.9 °F /  10.5 °C 30.2 in /  1022.9 hPa Calm     96 % 0 in /  0.0 mm
01:07 51.8 °F /  11.0 °C 50.4 °F /  10.2 °C 30.2 in /  1022.9 hPa Calm     95 % 0 in /  0.0 mm
01:12 51.8 °F /  11.0 °C 50.7 °F /  10.4 °C 30.2 in /  1022.6 hPa Calm     96 % 0 in /  0.0 mm
01:22 51.3 °F /  10.7 °C 49.8 °F /  9.9 °C 30.2 in /  1022.6 hPa Calm     95 % 0 in /  0.0 mm
01:27 51.1 °F /  10.6 °C 49.6 °F /  9.8 °C 30.2 in /  1022.6 hPa Calm     95 % 0 in /  0.0 mm
01:32 51.1 °F /  10.6 °C 50 °F /  10.0 °C 30.2 in /  1022.6 hPa Calm   1 mph /  1.6 km/h 96 % 0 in /  0.0 mm
01:37 50.9 °F /  10.5 °C 49.8 °F /  9.9 °C 30.2 in /  1022.9 hPa Calm   1 mph /  1.6 km/h 96 % 0 in /  0.0 mm
01:42 50.7 °F /  10.4 °C 49.6 °F /  9.8 °C 30.2 in /  1022.6 hPa Calm   1 mph /  1.6 km/h 96 % 0 in /  0.0 mm
01:47 50.7 °F /  10.4 °C 49.6 °F /  9.8 °C 30.2 in /  1022.6 hPa Calm   1 mph /  1.6 km/h 96 % 0 in /  0.0 mm
01:52 50.7 °F /  10.4 °C 49.6 °F /  9.8 °C 30.2 in /  1022.9 hPa Calm   1 mph /  1.6 km/h 96 % 0 in /  0.0 mm
01:57 50.7 °F /  10.4 °C 49.6 °F /  9.8 °C 30.2 in /  1022.6 hPa Calm   1 mph /  1.6 km/h 96 % 0 in /  0.0 mm
02:02 50.7 °F /  10.4 °C 49.6 °F /  9.8 °C 30.2 in /  1022.9 hPa Calm     96 % 0 in /  0.0 mm
02:12 50.7 °F /  10.4 °C 49.6 °F /  9.8 °C 30.2 in /  1022.6 hPa Calm     96 % 0 in /  0.0 mm
02:17 50.9 °F /  10.5 °C 49.8 °F /  9.9 °C 30.2 in /  1022.6 hPa Calm   1 mph /  1.6 km/h 96 % 0 in /  0.0 mm
02:22 51.1 °F /  10.6 °C 50.2 °F /  10.1 °C 30.2 in /  1022.6 hPa Calm   1 mph /  1.6 km/h 97 % 0 in /  0.0 mm
02:27 51.1 °F /  10.6 °C 50 °F /  10.0 °C 30.2 in /  1022.6 hPa Calm   1 mph /  1.6 km/h 96 % 0 in /  0.0 mm
02:32 50.9 °F /  10.5 °C 49.8 °F /  9.9 °C 30.2 in /  1022.6 hPa Calm     96 % 0 in /  0.0 mm
02:37 50.7 °F /  10.4 °C 49.6 °F /  9.8 °C 30.2 in /  1022.6 hPa Calm     96 % 0 in /  0.0 mm
02:42 50.5 °F /  10.3 °C 49.5 °F /  9.7 °C 30.2 in /  1022.6 hPa Calm     96 % 0 in /  0.0 mm
02:47 50.4 °F /  10.2 °C 49.3 °F /  9.6 °C 30.2 in /  1022.6 hPa Calm     96 % 0 in /  0.0 mm
02:52 50.4 °F /  10.2 °C 49.3 °F /  9.6 °C 30.2 in /  1022.6 hPa Calm     96 % 0 in /  0.0 mm
02:57 50.4 °F /  10.2 °C 49.3 °F /  9.6 °C 30.2 in /  1022.6 hPa Calm     96 % 0 in /  0.0 mm
03:07 50.4 °F /  10.2 °C 49.3 °F /  9.6 °C 30.2 in /  1022.6 hPa Calm     96 % 0 in /  0.0 mm
03:12 50.5 °F /  10.3 °C 49.6 °F /  9.8 °C 30.2 in /  1022.6 hPa Calm     97 % 0 in /  0.0 mm
03:17 50.5 °F /  10.3 °C 49.6 °F /  9.8 °C 30.2 in /  1022.6 hPa Calm     97 % 0 in /  0.0 mm
03:22 50.5 °F /  10.3 °C 49.5 °F /  9.7 °C 30.2 in /  1022.6 hPa Calm     96 % 0 in /  0.0 mm
03:27 50.5 °F /  10.3 °C 49.6 °F /  9.8 °C 30.2 in /  1022.6 hPa Calm     97 % 0 in /  0.0 mm
03:32 50.5 °F /  10.3 °C 49.6 °F /  9.8 °C 30.2 in /  1022.6 hPa Calm     97 % 0 in /  0.0 mm
03:37 50.5 °F /  10.3 °C 49.6 °F /  9.8 °C 30.2 in /  1022.6 hPa Calm     97 % 0 in /  0.0 mm
03:42 50.5 °F /  10.3 °C 49.6 °F /  9.8 °C 30.2 in /  1022.6 hPa Calm     97 % 0 in /  0.0 mm
03:52 50.7 °F /  10.4 °C 49.8 °F /  9.9 °C 30.2 in /  1022.6 hPa Calm     97 % 0 in /  0.0 mm
04:02 50.5 °F /  10.3 °C 49.6 °F /  9.8 °C 30.2 in /  1022.2 hPa Calm   1 mph /  1.6 km/h 97 % 0 in /  0.0 mm
04:07 50.5 °F /  10.3 °C 49.5 °F /  9.7 °C 30.2 in /  1022.2 hPa Calm   1 mph /  1.6 km/h 96 % 0 in /  0.0 mm
04:12 50.4 °F /  10.2 °C 49.3 °F /  9.6 °C 30.2 in /  1022.2 hPa Calm   1 mph /  1.6 km/h 96 % 0 in /  0.0 mm
04:22 50.4 °F /  10.2 °C 49.3 °F /  9.6 °C 30.2 in /  1022.2 hPa Calm   1 mph /  1.6 km/h 96 % 0 in /  0.0 mm
04:32 50.2 °F /  10.1 °C 49.1 °F /  9.5 °C 30.2 in /  1022.2 hPa Calm     96 % 0 in /  0.0 mm
04:37 50.2 °F /  10.1 °C 49.1 °F /  9.5 °C 30.2 in /  1022.2 hPa Calm     96 % 0 in /  0.0 mm
04:42 50.2 °F /  10.1 °C 49.3 °F /  9.6 °C 30.2 in /  1022.2 hPa Calm     97 % 0 in /  0.0 mm
04:47 50.2 °F /  10.1 °C 49.1 °F /  9.5 °C 30.2 in /  1022.2 hPa Calm     96 % 0 in /  0.0 mm
04:52 50 °F /  10.0 °C 49.1 °F /  9.5 °C 30.2 in /  1022.2 hPa Calm     97 % 0 in /  0.0 mm
05:02 50.2 °F /  10.1 °C 49.3 °F /  9.6 °C 30.2 in /  1022.2 hPa Calm     97 % 0 in /  0.0 mm
05:07 50.2 °F /  10.1 °C 49.3 °F /  9.6 °C 30.2 in /  1022.2 hPa Calm     97 % 0 in /  0.0 mm
05:12 50.2 °F /  10.1 °C 49.3 °F /  9.6 °C 30.2 in /  1022.2 hPa Calm     97 % 0 in /  0.0 mm
05:22 50.2 °F /  10.1 °C 49.3 °F /  9.6 °C 30.2 in /  1022.2 hPa Calm     97 % 0 in /  0.0 mm
05:27 50.4 °F /  10.2 °C 49.5 °F /  9.7 °C 30.2 in /  1022.2 hPa Calm     97 % 0 in /  0.0 mm
05:42 50.4 °F /  10.2 °C 49.5 °F /  9.7 °C 30.2 in /  1022.2 hPa Calm     97 % 0 in /  0.0 mm
05:47 50.4 °F /  10.2 °C 49.5 °F /  9.7 °C 30.2 in /  1022.2 hPa Calm   1 mph /  1.6 km/h 97 % 0 in /  0.0 mm
05:52 50.4 °F /  10.2 °C 49.5 °F /  9.7 °C 30.2 in /  1022.2 hPa Calm   1 mph /  1.6 km/h 97 % 0 in /  0.0 mm
05:57 50.4 °F /  10.2 °C 49.5 °F /  9.7 °C 30.2 in /  1022.2 hPa Calm   1 mph /  1.6 km/h 97 % 0 in /  0.0 mm
06:02 50.5 °F /  10.3 °C 49.6 °F /  9.8 °C 30.2 in /  1022.2 hPa Calm     97 % 0 in /  0.0 mm
06:12 50.5 °F /  10.3 °C 49.6 °F /  9.8 °C 30.2 in /  1022.2 hPa Calm     97 % 0 in /  0.0 mm
06:17 50.5 °F /  10.3 °C 49.6 °F /  9.8 °C 30.2 in /  1022.2 hPa Calm     97 % 0 in /  0.0 mm
06:22 50.5 °F /  10.3 °C 49.6 °F /  9.8 °C 30.2 in /  1022.2 hPa Calm     97 % 0 in /  0.0 mm
06:32 50.5 °F /  10.3 °C 49.6 °F /  9.8 °C 30.2 in /  1022.2 hPa Calm     97 % 0 in /  0.0 mm
06:52 50.4 °F /  10.2 °C 49.5 °F /  9.7 °C 30.2 in /  1022.2 hPa Calm     97 % 0 in /  0.0 mm
06:57 50.4 °F /  10.2 °C 49.5 °F /  9.7 °C 30.2 in /  1022.2 hPa Calm     97 % 0 in /  0.0 mm
07:02 50.4 °F /  10.2 °C 49.5 °F /  9.7 °C 30.2 in /  1022.2 hPa Calm     97 % 0 in /  0.0 mm
07:12 50.4 °F /  10.2 °C 49.5 °F /  9.7 °C 30.2 in /  1022.2 hPa Calm     97 % 0 in /  0.0 mm
07:17 50.4 °F /  10.2 °C 49.5 °F /  9.7 °C 30.2 in /  1022.2 hPa Calm     97 % 0 in /  0.0 mm
07:22 50.4 °F /  10.2 °C 49.5 °F /  9.7 °C 30.2 in /  1022.6 hPa Calm     97 % 0 in /  0.0 mm
07:42 49.8 °F /  9.9 °C 48.9 °F /  9.4 °C 30.2 in /  1022.2 hPa Calm     97 % 0 in /  0.0 mm
07:52 49.8 °F /  9.9 °C 48.9 °F /  9.4 °C 30.2 in /  1022.2 hPa Calm     97 % 0 in /  0.0 mm
07:57 49.8 °F /  9.9 °C 48.9 °F /  9.4 °C 30.2 in /  1022.2 hPa Calm     97 % 0 in /  0.0 mm
08:02 50 °F /  10.0 °C 49.1 °F /  9.5 °C 30.2 in /  1022.2 hPa Calm     97 % 0 in /  0.0 mm
08:12 50.2 °F /  10.1 °C 49.3 °F /  9.6 °C 30.2 in /  1022.2 hPa Calm     97 % 0 in /  0.0 mm
08:17 50.4 °F /  10.2 °C 49.5 °F /  9.7 °C 30.2 in /  1022.2 hPa Calm     97 % 0 in /  0.0 mm
08:22 50.4 °F /  10.2 °C 49.5 °F /  9.7 °C 30.2 in /  1022.2 hPa Calm     97 % 0 in /  0.0 mm
08:32 50.2 °F /  10.1 °C 49.3 °F /  9.6 °C 30.2 in /  1022.2 hPa Calm   1 mph /  1.6 km/h 97 % 0 in /  0.0 mm
08:42 50.2 °F /  10.1 °C 49.3 °F /  9.6 °C 30.2 in /  1022.2 hPa Calm   1 mph /  1.6 km/h 97 % 0 in /  0.0 mm
08:52 49.8 °F /  9.9 °C 48.9 °F /  9.4 °C 30.2 in /  1022.6 hPa Calm     97 % 0 in /  0.0 mm
09:02 50.2 °F /  10.1 °C 49.3 °F /  9.6 °C 30.2 in /  1022.6 hPa SSE 1 mph /  1.6 km/h   97 % 0 in /  0.0 mm
09:07 50 °F /  10.0 °C 49.1 °F /  9.5 °C 30.2 in /  1022.6 hPa Calm   1 mph /  1.6 km/h 97 % 0 in /  0.0 mm
09:12 50.4 °F /  10.2 °C 49.5 °F /  9.7 °C 30.2 in /  1022.6 hPa Calm   1 mph /  1.6 km/h 97 % 0 in /  0.0 mm
09:17 50.4 °F /  10.2 °C 49.5 °F /  9.7 °C 30.2 in /  1022.6 hPa Calm   1 mph /  1.6 km/h 97 % 0 in /  0.0 mm
09:22 50.5 °F /  10.3 °C 49.6 °F /  9.8 °C 30.2 in /  1022.6 hPa Calm     97 % 0 in /  0.0 mm
09:32 52.3 °F /  11.3 °C 51.8 °F /  11.0 °C 30.2 in /  1022.6 hPa Calm     98 % 0 in /  0.0 mm
09:42 52.5 °F /  11.4 °C 51.6 °F /  10.9 °C 30.2 in /  1022.6 hPa Calm   1 mph /  1.6 km/h 97 % 0 in /  0.0 mm
09:52 52.5 °F /  11.4 °C 51.6 °F /  10.9 °C 30.2 in /  1022.9 hPa Calm   1 mph /  1.6 km/h 97 % 0 in /  0.0 mm
10:02 52.5 °F /  11.4 °C 51.6 °F /  10.9 °C 30.2 in /  1022.9 hPa Calm   1 mph /  1.6 km/h 97 % 0 in /  0.0 mm
10:12 53.1 °F /  11.7 °C 52.2 °F /  11.2 °C 30.2 in /  1023.2 hPa Calm   1 mph /  1.6 km/h 97 % 0 in /  0.0 mm
10:17 53.2 °F /  11.8 °C 52.3 °F /  11.3 °C 30.2 in /  1022.9 hPa Calm   1 mph /  1.6 km/h 97 % 0 in /  0.0 mm
10:22 53.4 °F /  11.9 °C 52.5 °F /  11.4 °C 30.2 in /  1023.2 hPa Calm   2 mph /  3.2 km/h 97 % 0 in /  0.0 mm
10:32 54.7 °F /  12.6 °C 53.8 °F /  12.1 °C 30.2 in /  1023.2 hPa Calm   2 mph /  3.2 km/h 97 % 0 in /  0.0 mm
10:37 55 °F /  12.8 °C 54.1 °F /  12.3 °C 30.2 in /  1023.2 hPa SSE 2 mph /  3.2 km/h 2 mph /  3.2 km/h 97 % 0 in /  0.0 mm
10:42 54.9 °F /  12.7 °C 54 °F /  12.2 °C 30.2 in /  1023.2 hPa SSW 2 mph /  3.2 km/h 2 mph /  3.2 km/h 97 % 0 in /  0.0 mm
10:52 54.9 °F /  12.7 °C 53.8 °F /  12.1 °C 30.2 in /  1023.2 hPa SSE 1 mph /  1.6 km/h 3 mph /  4.8 km/h 96 % 0 in /  0.0 mm
10:57 55 °F /  12.8 °C 54 °F /  12.2 °C 30.2 in /  1023.2 hPa SSW 1 mph /  1.6 km/h 4 mph /  6.4 km/h 96 % 0 in /  0.0 mm
11:02 55 °F /  12.8 °C 53.6 °F /  12.0 °C 30.2 in /  1023.2 hPa SE 1 mph /  1.6 km/h 4 mph /  6.4 km/h 95 % 0 in /  0.0 mm
11:12 55.9 °F /  13.3 °C 54.9 °F /  12.7 °C 30.2 in /  1023.2 hPa Calm   4 mph /  6.4 km/h 96 % 0 in /  0.0 mm
11:17 56.8 °F /  13.8 °C 55.4 °F /  13.0 °C 30.2 in /  1023.2 hPa SSE 1 mph /  1.6 km/h 4 mph /  6.4 km/h 95 % 0 in /  0.0 mm
11:22 56.8 °F /  13.8 °C 55.2 °F /  12.9 °C 30.2 in /  1023.2 hPa SSW 1 mph /  1.6 km/h 3 mph /  4.8 km/h 94 % 0 in /  0.0 mm
11:32 57.6 °F /  14.2 °C 55.2 °F /  12.9 °C 30.2 in /  1023.2 hPa South 2 mph /  3.2 km/h 2 mph /  3.2 km/h 92 % 0 in /  0.0 mm
11:42 58.1 °F /  14.5 °C 55.2 °F /  12.9 °C 30.2 in /  1023.2 hPa SW 2 mph /  3.2 km/h 3 mph /  4.8 km/h 90 % 0 in /  0.0 mm
11:52 58.6 °F /  14.8 °C 55.4 °F /  13.0 °C 30.2 in /  1023.2 hPa South 1 mph /  1.6 km/h 3 mph /  4.8 km/h 89 % 0 in /  0.0 mm
12:02 59.5 °F /  15.3 °C 55.6 °F /  13.1 °C 30.2 in /  1023.2 hPa South 2 mph /  3.2 km/h 4 mph /  6.4 km/h 87 % 0 in /  0.0 mm
12:12 59 °F /  15.0 °C 54.5 °F /  12.5 °C 30.2 in /  1023.2 hPa SSW 1 mph /  1.6 km/h 5 mph /  8.0 km/h 85 % 0 in /  0.0 mm
12:17 58.8 °F /  14.9 °C 55 °F /  12.8 °C 30.2 in /  1023.2 hPa Calm   5 mph /  8.0 km/h 87 % 0 in /  0.0 mm
12:22 58.5 °F /  14.7 °C 54.7 °F /  12.6 °C 30.2 in /  1023.2 hPa Calm   5 mph /  8.0 km/h 87 % 0 in /  0.0 mm
12:32 57.9 °F /  14.4 °C 54.3 °F /  12.4 °C 30.2 in /  1023.2 hPa SSW 1 mph /  1.6 km/h 4 mph /  6.4 km/h 88 % 0 in /  0.0 mm
12:37 57.9 °F /  14.4 °C 54.3 °F /  12.4 °C 30.2 in /  1023.2 hPa SW 1 mph /  1.6 km/h 4 mph /  6.4 km/h 88 % 0 in /  0.0 mm
12:42 57.6 °F /  14.2 °C 54 °F /  12.2 °C 30.2 in /  1023.2 hPa SW 3 mph /  4.8 km/h 3 mph /  4.8 km/h 88 % 0 in /  0.0 mm
12:52 57.6 °F /  14.2 °C 54.3 °F /  12.4 °C 30.2 in /  1023.2 hPa SSW 2 mph /  3.2 km/h 4 mph /  6.4 km/h 89 % 0 in /  0.0 mm
12:57 57.6 °F /  14.2 °C 54.3 °F /  12.4 °C 30.2 in /  1023.2 hPa SW 1 mph /  1.6 km/h 4 mph /  6.4 km/h 89 % 0 in /  0.0 mm
13:02 57.6 °F /  14.2 °C 54.3 °F /  12.4 °C 30.2 in /  1023.2 hPa SSW 3 mph /  4.8 km/h 5 mph /  8.0 km/h 89 % 0 in /  0.0 mm
13:12 58.1 °F /  14.5 °C 54.9 °F /  12.7 °C 30.2 in /  1023.2 hPa SE 2 mph /  3.2 km/h 5 mph /  8.0 km/h 89 % 0 in /  0.0 mm
13:17 58.3 °F /  14.6 °C 54.5 °F /  12.5 °C 30.2 in /  1023.2 hPa SSW 2 mph /  3.2 km/h 4 mph /  6.4 km/h 87 % 0 in /  0.0 mm
13:22 58.3 °F /  14.6 °C 54.5 °F /  12.5 °C 30.2 in /  1023.2 hPa SSW 4 mph /  6.4 km/h 4 mph /  6.4 km/h 87 % 0 in /  0.0 mm
13:27 58.5 °F /  14.7 °C 54.7 °F /  12.6 °C 30.2 in /  1023.2 hPa SW 3 mph /  4.8 km/h 4 mph /  6.4 km/h 87 % 0 in /  0.0 mm
13:32 58.5 °F /  14.7 °C 54.7 °F /  12.6 °C 30.2 in /  1023.2 hPa South 1 mph /  1.6 km/h 4 mph /  6.4 km/h 87 % 0 in /  0.0 mm
13:37 58.8 °F /  14.9 °C 54.7 °F /  12.6 °C 30.2 in /  1023.2 hPa SW 2 mph /  3.2 km/h 4 mph /  6.4 km/h 86 % 0 in /  0.0 mm
13:42 59 °F /  15.0 °C 54.9 °F /  12.7 °C 30.2 in /  1023.2 hPa SSW 4 mph /  6.4 km/h 5 mph /  8.0 km/h 86 % 0 in /  0.0 mm
13:47 59.4 °F /  15.2 °C 55.4 °F /  13.0 °C 30.2 in /  1023.2 hPa SSW 2 mph /  3.2 km/h 5 mph /  8.0 km/h 87 % 0 in /  0.0 mm
13:52 59.4 °F /  15.2 °C 54.5 °F /  12.5 °C 30.2 in /  1023.2 hPa SW 2 mph /  3.2 km/h 6 mph /  9.7 km/h 84 % 0 in /  0.0 mm
13:57 59.4 °F /  15.2 °C 54.5 °F /  12.5 °C 30.2 in /  1023.2 hPa SW 2 mph /  3.2 km/h 6 mph /  9.7 km/h 84 % 0 in /  0.0 mm
14:02 59.9 °F /  15.5 °C 54.7 °F /  12.6 °C 30.2 in /  1022.9 hPa SSW 6 mph /  9.7 km/h 6 mph /  9.7 km/h 83 % 0 in /  0.0 mm
14:12 60.4 °F /  15.8 °C 54.9 °F /  12.7 °C 30.2 in /  1022.9 hPa SW 4 mph /  6.4 km/h 7 mph /  11.3 km/h 82 % 0 in /  0.0 mm
14:17 60.6 °F /  15.9 °C 55.4 °F /  13.0 °C 30.2 in /  1022.9 hPa SW 5 mph /  8.0 km/h 7 mph /  11.3 km/h 83 % 0 in /  0.0 mm
14:22 61 °F /  16.1 °C 54.5 °F /  12.5 °C 30.2 in /  1022.9 hPa SSW 7 mph /  11.3 km/h 8 mph /  12.9 km/h 79 % 0 in /  0.0 mm
14:27 61.2 °F /  16.2 °C 54.7 °F /  12.6 °C 30.2 in /  1022.6 hPa SW 5 mph /  8.0 km/h 8 mph /  12.9 km/h 79 % 0 in /  0.0 mm
14:32 61.2 °F /  16.2 °C 54.9 °F /  12.7 °C 30.2 in /  1022.6 hPa SW 6 mph /  9.7 km/h 9 mph /  14.5 km/h 80 % 0 in /  0.0 mm
14:37 61.3 °F /  16.3 °C 54.1 °F /  12.3 °C 30.2 in /  1022.6 hPa SW 7 mph /  11.3 km/h 9 mph /  14.5 km/h 77 % 0 in /  0.0 mm
14:42 61.3 °F /  16.3 °C 55 °F /  12.8 °C 30.2 in /  1022.6 hPa South 7 mph /  11.3 km/h 9 mph /  14.5 km/h 80 % 0 in /  0.0 mm
14:47 61.5 °F /  16.4 °C 54.3 °F /  12.4 °C 30.2 in /  1022.2 hPa SW 5 mph /  8.0 km/h 9 mph /  14.5 km/h 77 % 0 in /  0.0 mm
14:52 61.5 °F /  16.4 °C 54.3 °F /  12.4 °C 30.2 in /  1022.2 hPa South 3 mph /  4.8 km/h 9 mph /  14.5 km/h 77 % 0 in /  0.0 mm
14:57 61.3 °F /  16.3 °C 53.8 °F /  12.1 °C 30.2 in /  1022.2 hPa SW 5 mph /  8.0 km/h 9 mph /  14.5 km/h 76 % 0 in /  0.0 mm
15:02 61.2 °F /  16.2 °C 53.2 °F /  11.8 °C 30.2 in /  1022.2 hPa SW 2 mph /  3.2 km/h 8 mph /  12.9 km/h 75 % 0 in /  0.0 mm
15:07 61.2 °F /  16.2 °C 52.9 °F /  11.6 °C 30.2 in /  1022.2 hPa West 2 mph /  3.2 km/h 7 mph /  11.3 km/h 74 % 0 in /  0.0 mm
15:12 61.2 °F /  16.2 °C 53.2 °F /  11.8 °C 30.2 in /  1022.2 hPa Calm   6 mph /  9.7 km/h 75 % 0 in /  0.0 mm
15:17 61.3 °F /  16.3 °C 54.1 °F /  12.3 °C 30.2 in /  1022.2 hPa North 4 mph /  6.4 km/h 5 mph /  8.0 km/h 77 % 0 in /  0.0 mm
15:22 61.3 °F /  16.3 °C 53.8 °F /  12.1 °C 30.2 in /  1022.2 hPa NNW 3 mph /  4.8 km/h 5 mph /  8.0 km/h 76 % 0 in /  0.0 mm
15:27 61.2 °F /  16.2 °C 52.5 °F /  11.4 °C 30.2 in /  1022.2 hPa ENE 1 mph /  1.6 km/h 5 mph /  8.0 km/h 73 % 0 in /  0.0 mm
15:32 61.3 °F /  16.3 °C 52.7 °F /  11.5 °C 30.2 in /  1022.2 hPa NE 2 mph /  3.2 km/h 5 mph /  8.0 km/h 73 % 0 in /  0.0 mm
15:37 61.7 °F /  16.5 °C 53.8 °F /  12.1 °C 30.2 in /  1022.2 hPa NE 1 mph /  1.6 km/h 4 mph /  6.4 km/h 75 % 0 in /  0.0 mm
15:42 61.5 °F /  16.4 °C 54.3 °F /  12.4 °C 30.2 in /  1022.2 hPa West 2 mph /  3.2 km/h 5 mph /  8.0 km/h 77 % 0 in /  0.0 mm
15:47 61.2 °F /  16.2 °C 52 °F /  11.1 °C 30.2 in /  1022.2 hPa West 2 mph /  3.2 km/h 6 mph /  9.7 km/h 72 % 0 in /  0.0 mm
15:52 60.8 °F /  16.0 °C 53.6 °F /  12.0 °C 30.2 in /  1022.2 hPa SW 6 mph /  9.7 km/h 6 mph /  9.7 km/h 77 % 0 in /  0.0 mm
15:57 60.4 °F /  15.8 °C 53.2 °F /  11.8 °C 30.2 in /  1022.2 hPa SSE 5 mph /  8.0 km/h 7 mph /  11.3 km/h 77 % 0 in /  0.0 mm
16:02 60.4 °F /  15.8 °C 53.6 °F /  12.0 °C 30.2 in /  1022.2 hPa SSE 5 mph /  8.0 km/h 11 mph /  17.7 km/h 78 % 0 in /  0.0 mm
16:07 60.4 °F /  15.8 °C 53.6 °F /  12.0 °C 30.2 in /  1022.2 hPa SSW 1 mph /  1.6 km/h 11 mph /  17.7 km/h 78 % 0 in /  0.0 mm
16:12 60.4 °F /  15.8 °C 53.6 °F /  12.0 °C 30.2 in /  1022.2 hPa SW 3 mph /  4.8 km/h 11 mph /  17.7 km/h 78 % 0 in /  0.0 mm
16:22 60.4 °F /  15.8 °C 53.6 °F /  12.0 °C 30.2 in /  1022.2 hPa West 2 mph /  3.2 km/h 5 mph /  8.0 km/h 78 % 0 in /  0.0 mm
16:27 60.4 °F /  15.8 °C 53.2 °F /  11.8 °C 30.2 in /  1022.2 hPa WSW 1 mph /  1.6 km/h 5 mph /  8.0 km/h 77 % 0 in /  0.0 mm
16:32 60.4 °F /  15.8 °C 53.2 °F /  11.8 °C 30.2 in /  1021.9 hPa SW 9 mph /  14.5 km/h 9 mph /  14.5 km/h 77 % 0 in /  0.0 mm
16:37 60.3 °F /  15.7 °C 53.1 °F /  11.7 °C 30.2 in /  1022.2 hPa WSW 3 mph /  4.8 km/h 9 mph /  14.5 km/h 77 % 0 in /  0.0 mm
16:42 60.1 °F /  15.6 °C 53.2 °F /  11.8 °C 30.2 in /  1021.9 hPa SW 6 mph /  9.7 km/h 9 mph /  14.5 km/h 78 % 0 in /  0.0 mm
16:52 59.9 °F /  15.5 °C 53.8 °F /  12.1 °C 30.2 in /  1022.2 hPa WSW 5 mph /  8.0 km/h 8 mph /  12.9 km/h 80 % 0 in /  0.0 mm
16:57 59.9 °F /  15.5 °C 53.8 °F /  12.1 °C 30.2 in /  1022.2 hPa SW 2 mph /  3.2 km/h 8 mph /  12.9 km/h 80 % 0 in /  0.0 mm
17:02 59.9 °F /  15.5 °C 54.1 °F /  12.3 °C 30.2 in /  1021.9 hPa SW 4 mph /  6.4 km/h 7 mph /  11.3 km/h 81 % 0 in /  0.0 mm
17:07 60.1 °F /  15.6 °C 54.5 °F /  12.5 °C 30.2 in /  1021.9 hPa SW 3 mph /  4.8 km/h 7 mph /  11.3 km/h 82 % 0 in /  0.0 mm
17:12 60.6 °F /  15.9 °C 55 °F /  12.8 °C 30.2 in /  1021.9 hPa SW 3 mph /  4.8 km/h 7 mph /  11.3 km/h 82 % 0 in /  0.0 mm
17:17 60.6 °F /  15.9 °C 54.5 °F /  12.5 °C 30.2 in /  1021.9 hPa SSW 3 mph /  4.8 km/h 7 mph /  11.3 km/h 80 % 0 in /  0.0 mm
17:22 60.4 °F /  15.8 °C 54.5 °F /  12.5 °C 30.2 in /  1021.9 hPa West 1 mph /  1.6 km/h 5 mph /  8.0 km/h 81 % 0 in /  0.0 mm
17:27 60.4 °F /  15.8 °C 54.5 °F /  12.5 °C 30.2 in /  1021.9 hPa SW 1 mph /  1.6 km/h 5 mph /  8.0 km/h 81 % 0 in /  0.0 mm
17:37 60.4 °F /  15.8 °C 53.6 °F /  12.0 °C 30.2 in /  1021.9 hPa WSW 1 mph /  1.6 km/h 3 mph /  4.8 km/h 78 % 0 in /  0.0 mm
17:42 60.4 °F /  15.8 °C 53.6 °F /  12.0 °C 30.2 in /  1021.9 hPa WSW 1 mph /  1.6 km/h 3 mph /  4.8 km/h 78 % 0 in /  0.0 mm
17:47 60.4 °F /  15.8 °C 54 °F /  12.2 °C 30.2 in /  1021.9 hPa Calm   4 mph /  6.4 km/h 79 % 0 in /  0.0 mm
17:52 60.6 °F /  15.9 °C 54.1 °F /  12.3 °C 30.2 in /  1021.9 hPa Calm   4 mph /  6.4 km/h 79 % 0 in /  0.0 mm
17:57 60.6 °F /  15.9 °C 54.1 °F /  12.3 °C 30.2 in /  1021.9 hPa West 2 mph /  3.2 km/h 4 mph /  6.4 km/h 79 % 0 in /  0.0 mm
18:02 60.6 °F /  15.9 °C 54.5 °F /  12.5 °C 30.2 in /  1021.9 hPa West 1 mph /  1.6 km/h 4 mph /  6.4 km/h 80 % 0 in /  0.0 mm
18:12 60.3 °F /  15.7 °C 53.4 °F /  11.9 °C 30.2 in /  1021.9 hPa West 2 mph /  3.2 km/h 4 mph /  6.4 km/h 78 % 0 in /  0.0 mm
18:17 60.3 °F /  15.7 °C 53.4 °F /  11.9 °C 30.2 in /  1021.9 hPa SW 3 mph /  4.8 km/h 6 mph /  9.7 km/h 78 % 0 in /  0.0 mm
18:22 60.1 °F /  15.6 °C 52.9 °F /  11.6 °C 30.2 in /  1021.9 hPa West 3 mph /  4.8 km/h 6 mph /  9.7 km/h 77 % 0 in /  0.0 mm
18:32 59.7 °F /  15.4 °C 52.9 °F /  11.6 °C 30.2 in /  1021.9 hPa West 3 mph /  4.8 km/h 6 mph /  9.7 km/h 78 % 0 in /  0.0 mm
18:42 59.5 °F /  15.3 °C 52.7 °F /  11.5 °C 30.2 in /  1021.9 hPa WNW 4 mph /  6.4 km/h 6 mph /  9.7 km/h 78 % 0 in /  0.0 mm
18:47 59.5 °F /  15.3 °C 52.7 °F /  11.5 °C 30.2 in /  1021.9 hPa WNW 5 mph /  8.0 km/h 6 mph /  9.7 km/h 78 % 0 in /  0.0 mm
18:52 59.4 °F /  15.2 °C 52.5 °F /  11.4 °C 30.2 in /  1021.9 hPa West 3 mph /  4.8 km/h 6 mph /  9.7 km/h 78 % 0 in /  0.0 mm
18:57 59.4 °F /  15.2 °C 52.9 °F /  11.6 °C 30.2 in /  1021.9 hPa West 3 mph /  4.8 km/h 6 mph /  9.7 km/h 79 % 0 in /  0.0 mm
19:02 59.4 °F /  15.2 °C 52.9 °F /  11.6 °C 30.2 in /  1021.9 hPa WSW 2 mph /  3.2 km/h 5 mph /  8.0 km/h 79 % 0 in /  0.0 mm
19:07 59.2 °F /  15.1 °C 53.1 °F /  11.7 °C 30.2 in /  1021.9 hPa West 1 mph /  1.6 km/h 5 mph /  8.0 km/h 80 % 0 in /  0.0 mm
19:12 59.2 °F /  15.1 °C 53.1 °F /  11.7 °C 30.2 in /  1021.9 hPa WSW 2 mph /  3.2 km/h 5 mph /  8.0 km/h 80 % 0 in /  0.0 mm
19:17 59.2 °F /  15.1 °C 53.4 °F /  11.9 °C 30.2 in /  1022.2 hPa West 1 mph /  1.6 km/h 5 mph /  8.0 km/h 81 % 0 in /  0.0 mm
19:22 58.8 °F /  14.9 °C 53.1 °F /  11.7 °C 30.2 in /  1021.9 hPa WNW 2 mph /  3.2 km/h 4 mph /  6.4 km/h 81 % 0 in /  0.0 mm
19:27 58.8 °F /  14.9 °C 53.4 °F /  11.9 °C 30.2 in /  1021.9 hPa WNW 2 mph /  3.2 km/h 3 mph /  4.8 km/h 82 % 0 in /  0.0 mm
19:32 58.8 °F /  14.9 °C 53.4 °F /  11.9 °C 30.2 in /  1022.2 hPa Calm   3 mph /  4.8 km/h 82 % 0 in /  0.0 mm
19:37 58.6 °F /  14.8 °C 53.2 °F /  11.8 °C 30.2 in /  1022.2 hPa West 1 mph /  1.6 km/h 3 mph /  4.8 km/h 82 % 0 in /  0.0 mm
19:42 58.5 °F /  14.7 °C 53.2 °F /  11.8 °C 30.2 in /  1022.2 hPa West 1 mph /  1.6 km/h 2 mph /  3.2 km/h 83 % 0 in /  0.0 mm
19:47 58.5 °F /  14.7 °C 53.2 °F /  11.8 °C 30.2 in /  1022.2 hPa Calm   2 mph /  3.2 km/h 83 % 0 in /  0.0 mm
19:52 58.3 °F /  14.6 °C 53.1 °F /  11.7 °C 30.2 in /  1022.2 hPa West 1 mph /  1.6 km/h 2 mph /  3.2 km/h 83 % 0 in /  0.0 mm
19:57 58.3 °F /  14.6 °C 53.1 °F /  11.7 °C 30.2 in /  1022.2 hPa West 1 mph /  1.6 km/h 2 mph /  3.2 km/h 83 % 0 in /  0.0 mm
20:02 58.3 °F /  14.6 °C 53.4 °F /  11.9 °C 30.2 in /  1022.2 hPa West 2 mph /  3.2 km/h 2 mph /  3.2 km/h 84 % 0 in /  0.0 mm
20:07 58.3 °F /  14.6 °C 53.4 °F /  11.9 °C 30.2 in /  1022.2 hPa WNW 2 mph /  3.2 km/h 3 mph /  4.8 km/h 84 % 0 in /  0.0 mm
20:12 58.3 °F /  14.6 °C 53.1 °F /  11.7 °C 30.2 in /  1022.2 hPa West 1 mph /  1.6 km/h 3 mph /  4.8 km/h 83 % 0 in /  0.0 mm
20:22 58.3 °F /  14.6 °C 53.1 °F /  11.7 °C 30.2 in /  1022.2 hPa WNW 1 mph /  1.6 km/h 3 mph /  4.8 km/h 83 % 0 in /  0.0 mm
20:27 58.1 °F /  14.5 °C 52.9 °F /  11.6 °C 30.2 in /  1022.2 hPa Calm   3 mph /  4.8 km/h 83 % 0 in /  0.0 mm
20:32 58.1 °F /  14.5 °C 53.2 °F /  11.8 °C 30.2 in /  1022.2 hPa Calm   3 mph /  4.8 km/h 84 % 0 in /  0.0 mm
20:37 57.9 °F /  14.4 °C 53.1 °F /  11.7 °C 30.2 in /  1022.2 hPa WNW 2 mph /  3.2 km/h 2 mph /  3.2 km/h 84 % 0 in /  0.0 mm
20:42 57.9 °F /  14.4 °C 53.4 °F /  11.9 °C 30.2 in /  1022.2 hPa WNW 1 mph /  1.6 km/h 2 mph /  3.2 km/h 85 % 0 in /  0.0 mm
20:47 57.7 °F /  14.3 °C 53.2 °F /  11.8 °C 30.2 in /  1022.2 hPa WNW 1 mph /  1.6 km/h 2 mph /  3.2 km/h 85 % 0 in /  0.0 mm
20:52 57.7 °F /  14.3 °C 53.2 °F /  11.8 °C 30.2 in /  1022.2 hPa Calm   2 mph /  3.2 km/h 85 % 0 in /  0.0 mm
20:57 57.7 °F /  14.3 °C 53.2 °F /  11.8 °C 30.2 in /  1022.2 hPa Calm   1 mph /  1.6 km/h 85 % 0 in /  0.0 mm
21:02 57.6 °F /  14.2 °C 53.1 °F /  11.7 °C 30.2 in /  1022.2 hPa Calm   1 mph /  1.6 km/h 85 % 0 in /  0.0 mm
21:07 57.6 °F /  14.2 °C 53.1 °F /  11.7 °C 30.2 in /  1022.2 hPa Calm   1 mph /  1.6 km/h 85 % 0 in /  0.0 mm
21:12 57.6 °F /  14.2 °C 53.1 °F /  11.7 °C 30.2 in /  1022.2 hPa Calm     85 % 0 in /  0.0 mm
21:17 57.4 °F /  14.1 °C 52.9 °F /  11.6 °C 30.2 in /  1022.2 hPa Calm     85 % 0 in /  0.0 mm
21:22 57.4 °F /  14.1 °C 52.9 °F /  11.6 °C 30.2 in /  1022.2 hPa Calm     85 % 0 in /  0.0 mm
21:32 57.2 °F /  14.0 °C 53.4 °F /  11.9 °C 30.2 in /  1022.2 hPa Calm     87 % 0 in /  0.0 mm
21:37 57 °F /  13.9 °C 53.4 °F /  11.9 °C 30.2 in /  1022.2 hPa Calm     88 % 0 in /  0.0 mm
21:42 56.7 °F /  13.7 °C 53.4 °F /  11.9 °C 30.2 in /  1022.2 hPa Calm     89 % 0 in /  0.0 mm
21:47 56.5 °F /  13.6 °C 53.6 °F /  12.0 °C 30.2 in /  1022.2 hPa Calm     90 % 0 in /  0.0 mm
21:52 56.1 °F /  13.4 °C 53.2 °F /  11.8 °C 30.2 in /  1022.2 hPa Calm     90 % 0 in /  0.0 mm
21:57 56.1 °F /  13.4 °C 53.2 °F /  11.8 °C 30.2 in /  1022.2 hPa Calm     90 % 0 in /  0.0 mm
22:02 56.1 °F /  13.4 °C 53.2 °F /  11.8 °C 30.2 in /  1022.2 hPa Calm     90 % 0 in /  0.0 mm
22:07 56.1 °F /  13.4 °C 53.6 °F /  12.0 °C 30.2 in /  1022.2 hPa Calm     91 % 0 in /  0.0 mm
22:12 55.9 °F /  13.3 °C 53.4 °F /  11.9 °C 30.2 in /  1022.2 hPa Calm     91 % 0 in /  0.0 mm
22:17 55.9 °F /  13.3 °C 53.4 °F /  11.9 °C 30.2 in /  1022.2 hPa Calm     91 % 0 in /  0.0 mm
22:22 55.9 °F /  13.3 °C 53.4 °F /  11.9 °C 30.2 in /  1022.2 hPa Calm     91 % 0 in /  0.0 mm
22:27 55.9 °F /  13.3 °C 53.4 °F /  11.9 °C 30.2 in /  1022.2 hPa Calm     91 % 0 in /  0.0 mm
22:32 55.8 °F /  13.2 °C 53.4 °F /  11.9 °C 30.2 in /  1022.2 hPa Calm     92 % 0 in /  0.0 mm
22:37 55.9 °F /  13.3 °C 53.6 °F /  12.0 °C 30.2 in /  1022.2 hPa Calm     92 % 0 in /  0.0 mm
22:42 55.8 °F /  13.2 °C 53.4 °F /  11.9 °C 30.2 in /  1022.2 hPa Calm     92 % 0 in /  0.0 mm
22:47 55.9 °F /  13.3 °C 53.6 °F /  12.0 °C 30.2 in /  1022.2 hPa Calm     92 % 0 in /  0.0 mm
22:52 55.9 °F /  13.3 °C 53.4 °F /  11.9 °C 30.2 in /  1022.2 hPa Calm     91 % 0 in /  0.0 mm
22:57 55.8 °F /  13.2 °C 53.2 °F /  11.8 °C 30.2 in /  1022.2 hPa Calm     91 % 0 in /  0.0 mm
23:02 55.8 °F /  13.2 °C 53.4 °F /  11.9 °C 30.2 in /  1022.2 hPa Calm     92 % 0 in /  0.0 mm
23:07 55.6 °F /  13.1 °C 53.2 °F /  11.8 °C 30.2 in /  1022.2 hPa Calm     92 % 0 in /  0.0 mm
23:12 55.2 °F /  12.9 °C 52.9 °F /  11.6 °C 30.2 in /  1022.2 hPa Calm     92 % 0 in /  0.0 mm
23:17 55 °F /  12.8 °C 52.7 °F /  11.5 °C 30.2 in /  1022.2 hPa Calm     92 % 0 in /  0.0 mm
23:22 54.9 °F /  12.7 °C 52.5 °F /  11.4 °C 30.2 in /  1022.2 hPa Calm     92 % 0 in /  0.0 mm
23:27 54.9 °F /  12.7 °C 52.9 °F /  11.6 °C 30.2 in /  1022.2 hPa Calm     93 % 0 in /  0.0 mm
23:37 54.7 °F /  12.6 °C 52.7 °F /  11.5 °C 30.2 in /  1022.2 hPa Calm   2 mph /  3.2 km/h 93 % 0 in /  0.0 mm
23:42 54.5 °F /  12.5 °C 52.5 °F /  11.4 °C 30.2 in /  1022.2 hPa Calm   2 mph /  3.2 km/h 93 % 0 in /  0.0 mm
23:47 54.3 °F /  12.4 °C 52.3 °F /  11.3 °C 30.2 in /  1022.2 hPa Calm   1 mph /  1.6 km/h 93 % 0 in /  0.0 mm
23:52 54.1 °F /  12.3 °C 52.2 °F /  11.2 °C 30.2 in /  1022.2 hPa Calm   1 mph /  1.6 km/h 93 % 0 in /  0.0 mm
23:57 54 °F /  12.2 °C 52.3 °F /  11.3 °C 30.2 in /  1022.2 hPa Calm     94 % 0 in /  0.0 mm
Meteo18
Compliments of Weather Underground - 4 mb

Script developed by  Jim McMurry - jmcmurry@mwt.net Adapted for the template by  Wim van der Kuil - Leuven-Template.eu

You find our weather info also at:

European Weather Network

Weather Underground

Equipment we use:

Weather-station
Davis Vue

Weather-program
Meteohub

Weather-server
Raspberry PI 2 B+

Provider
1 and 1

Davis Vue

Meteohub

Raspberry PI 2 B+

1 and 1